createdAt,value
2018-10-09T00:00:03.611Z,97.06
2018-10-09T00:01:03.604Z,97.06
2018-10-09T00:02:03.592Z,97.06
2018-10-09T00:03:03.582Z,97.27
2018-10-09T00:04:03.569Z,97.37
2018-10-09T00:05:03.557Z,97.27
2018-10-09T00:06:03.547Z,97.47
2018-10-09T00:07:03.536Z,97.47
2018-10-09T00:08:03.525Z,97.58
2018-10-09T00:09:03.514Z,97.58
2018-10-09T00:10:03.503Z,97.06
2018-10-09T00:11:03.491Z,96.65
2018-10-09T00:12:03.482Z,96.44
2018-10-09T00:13:03.473Z,96.65
2018-10-09T00:14:03.459Z,96.59
2018-10-09T00:15:03.449Z,96.80
2018-10-09T00:16:03.438Z,97.21
2018-10-09T00:17:03.426Z,97.52
2018-10-09T00:18:03.416Z,97.78
2018-10-09T00:19:03.404Z,97.99
2018-10-09T00:20:03.394Z,97.88
2018-10-09T00:21:03.385Z,97.88
2018-10-09T00:22:03.372Z,97.88
2018-10-09T00:23:03.362Z,97.78
2018-10-09T00:24:03.348Z,97.68
2018-10-09T00:25:03.359Z,97.58
2018-10-09T00:26:03.354Z,97.37
2018-10-09T00:27:03.317Z,97.37
2018-10-09T00:28:03.306Z,97.37
2018-10-09T00:29:03.294Z,97.27
2018-10-09T00:30:03.285Z,97.16
2018-10-09T00:31:03.278Z,96.96
2018-10-09T00:32:03.261Z,96.96
2018-10-09T00:33:03.251Z,96.85
2018-10-09T00:34:03.239Z,96.34
2018-10-09T00:35:03.231Z,96.13
2018-10-09T00:36:03.217Z,96.38
2018-10-09T00:37:03.207Z,96.69
2018-10-09T00:38:03.197Z,96.90
2018-10-09T00:39:03.185Z,97.10
2018-10-09T00:40:03.172Z,97.31
2018-10-09T00:41:03.162Z,97.56
2018-10-09T00:42:03.152Z,97.66
2018-10-09T00:43:03.147Z,97.77
2018-10-09T00:44:03.129Z,97.87
2018-10-09T00:45:03.119Z,97.87
2018-10-09T00:46:03.108Z,97.87
2018-10-09T00:47:03.097Z,98.18
2018-10-09T00:48:03.086Z,98.29
2018-10-09T00:49:03.079Z,98.44
2018-10-09T00:50:03.064Z,98.44
2018-10-09T00:51:03.053Z,98.34
2018-10-09T00:52:03.041Z,98.13
2018-10-09T00:53:03.031Z,98.24
2018-10-09T00:54:03.021Z,98.24
2018-10-09T00:55:03.008Z,97.83
2018-10-09T00:56:03.008Z,97.72
2018-10-09T00:57:02.986Z,97.72
2018-10-09T00:58:02.976Z,97.72
2018-10-09T00:59:02.966Z,97.93
2018-10-09T01:00:02.956Z,97.93
2018-10-09T01:01:02.944Z,98.03
2018-10-09T01:02:02.933Z,97.93
2018-10-09T01:03:02.922Z,97.83
2018-10-09T01:04:02.910Z,97.72
2018-10-09T01:05:02.899Z,97.62
2018-10-09T01:06:02.888Z,97.62
2018-10-09T01:07:02.879Z,97.62
2018-10-09T01:08:02.866Z,97.62
2018-10-09T01:09:02.886Z,97.62
2018-10-09T01:10:02.848Z,97.62
2018-10-09T01:11:02.835Z,97.52
2018-10-09T01:12:02.823Z,97.21
2018-10-09T01:13:02.811Z,97.00
2018-10-09T01:14:02.802Z,96.49
2018-10-09T01:15:02.791Z,96.28
2018-10-09T01:16:02.779Z,96.17
2018-10-09T01:17:02.769Z,96.08
2018-10-09T01:18:02.758Z,96.08
2018-10-09T01:19:02.746Z,96.08
2018-10-09T01:20:02.738Z,96.08
2018-10-09T01:21:02.725Z,96.28
2018-10-09T01:22:02.717Z,96.59
2018-10-09T01:23:02.702Z,96.84
2018-10-09T01:24:02.692Z,97.15
2018-10-09T01:25:02.681Z,97.36
2018-10-09T01:26:02.669Z,97.46
2018-10-09T01:27:02.658Z,97.56
2018-10-09T01:28:02.649Z,97.56
2018-10-09T01:29:02.636Z,97.56
2018-10-09T01:30:02.628Z,97.77
2018-10-09T01:31:02.617Z,97.87
2018-10-09T01:32:02.608Z,97.97
2018-10-09T01:33:02.596Z,98.08
2018-10-09T01:34:02.583Z,97.97
2018-10-09T01:35:02.572Z,98.29
2018-10-09T01:36:02.560Z,98.13
2018-10-09T01:37:02.550Z,97.93
2018-10-09T01:38:02.540Z,97.62
2018-10-09T01:39:02.530Z,97.62
2018-10-09T01:40:02.516Z,97.72
2018-10-09T01:41:02.507Z,97.62
2018-10-09T01:42:02.500Z,97.72
2018-10-09T01:43:02.490Z,97.62
2018-10-09T01:44:02.472Z,97.72
2018-10-09T01:45:02.464Z,97.62
2018-10-09T01:46:02.453Z,97.52
2018-10-09T01:47:02.454Z,97.41
2018-10-09T01:48:02.432Z,97.41
2018-10-09T01:49:02.418Z,97.21
2018-10-09T01:50:02.411Z,97.10
2018-10-09T01:51:02.397Z,97.10
2018-10-09T01:52:02.386Z,97.10
2018-10-09T01:53:02.374Z,97.00
2018-10-09T01:54:02.363Z,97.10
2018-10-09T01:55:02.352Z,97.10
2018-10-09T01:56:02.340Z,97.31
2018-10-09T01:57:02.332Z,97.41
2018-10-09T01:58:02.323Z,97.41
2018-10-09T01:59:02.309Z,97.21
2018-10-09T02:00:02.299Z,97.21
2018-10-09T02:01:02.285Z,97.21
2018-10-09T02:02:02.274Z,97.10
2018-10-09T02:03:02.264Z,96.90
2018-10-09T02:04:02.256Z,96.69
2018-10-09T02:05:02.242Z,96.43
2018-10-09T02:06:02.232Z,96.22
2018-10-09T02:07:02.219Z,96.22
2018-10-09T02:08:02.209Z,96.22
2018-10-09T02:09:02.198Z,96.12
2018-10-09T02:10:02.186Z,96.02
2018-10-09T02:11:02.178Z,96.22
2018-10-09T02:12:02.166Z,96.33
2018-10-09T02:13:02.155Z,96.43
2018-10-09T02:14:02.144Z,96.53
2018-10-09T02:15:02.139Z,96.74
2018-10-09T02:16:02.122Z,97.05
2018-10-09T02:17:02.115Z,96.84
2018-10-09T02:18:02.101Z,96.88
2018-10-09T02:19:02.090Z,96.99
2018-10-09T02:20:02.091Z,97.19
2018-10-09T02:21:02.067Z,97.50
2018-10-09T02:22:02.056Z,97.92
2018-10-09T02:23:02.046Z,97.97
2018-10-09T02:24:02.035Z,98.08
2018-10-09T02:25:02.023Z,97.97
2018-10-09T02:26:02.013Z,97.97
2018-10-09T02:27:02.000Z,98.08
2018-10-09T02:28:01.989Z,98.08
2018-10-09T02:29:01.980Z,98.18
2018-10-09T02:30:01.971Z,97.97
2018-10-09T02:31:01.961Z,97.66
2018-10-09T02:32:01.951Z,97.46
2018-10-09T02:33:01.936Z,97.36
2018-10-09T02:34:01.925Z,97.36
2018-10-09T02:35:01.913Z,97.36
2018-10-09T02:36:01.909Z,97.46
2018-10-09T02:37:01.904Z,97.46
2018-10-09T02:38:01.881Z,97.46
2018-10-09T02:39:01.870Z,97.46
2018-10-09T02:40:01.860Z,97.36
2018-10-09T02:41:01.848Z,97.36
2018-10-09T02:42:01.841Z,97.36
2018-10-09T02:43:01.831Z,97.46
2018-10-09T02:44:01.816Z,97.46
2018-10-09T02:45:01.806Z,97.36
2018-10-09T02:46:01.794Z,97.25
2018-10-09T02:47:01.784Z,96.99
2018-10-09T02:48:01.772Z,97.09
2018-10-09T02:49:01.771Z,97.09
2018-10-09T02:50:01.750Z,97.30
2018-10-09T02:51:01.738Z,97.61
2018-10-09T02:52:01.728Z,97.82
2018-10-09T02:53:01.717Z,97.92
2018-10-09T02:54:01.706Z,97.92
2018-10-09T02:55:01.696Z,97.50
2018-10-09T02:56:01.685Z,97.40
2018-10-09T02:57:01.673Z,97.40
2018-10-09T02:58:01.663Z,97.30
2018-10-09T02:59:01.652Z,97.30
2018-10-09T03:00:01.641Z,97.09
2018-10-09T03:01:01.628Z,97.09
2018-10-09T03:02:01.621Z,96.99
2018-10-09T03:03:01.608Z,97.09
2018-10-09T03:04:01.597Z,97.19
2018-10-09T03:05:01.587Z,97.09
2018-10-09T03:06:01.575Z,96.99
2018-10-09T03:07:01.563Z,96.88
2018-10-09T03:08:01.558Z,96.99
2018-10-09T03:09:01.540Z,97.09
2018-10-09T03:10:01.531Z,96.99
2018-10-09T03:11:01.520Z,96.88
2018-10-09T03:12:01.508Z,96.88
2018-10-09T03:13:01.498Z,96.88
2018-10-09T03:14:01.491Z,96.68
2018-10-09T03:15:01.476Z,96.47
2018-10-09T03:16:01.464Z,96.37
2018-10-09T03:17:01.454Z,96.62
2018-10-09T03:18:01.442Z,96.72
2018-10-09T03:19:01.433Z,96.93
2018-10-09T03:20:01.423Z,97.24
2018-10-09T03:21:01.410Z,97.44
2018-10-09T03:22:01.398Z,97.44
2018-10-09T03:23:01.392Z,97.65
2018-10-09T03:24:01.377Z,97.76
2018-10-09T03:25:01.367Z,97.96
2018-10-09T03:26:01.355Z,97.96
2018-10-09T03:27:01.344Z,97.86
2018-10-09T03:28:01.332Z,97.86
2018-10-09T03:29:01.327Z,97.96
2018-10-09T03:30:01.313Z,97.96
2018-10-09T03:31:01.301Z,97.76
2018-10-09T03:32:01.303Z,97.86
2018-10-09T03:33:01.281Z,97.76
2018-10-09T03:34:01.268Z,97.86
2018-10-09T03:35:01.257Z,97.96
2018-10-09T03:36:01.247Z,97.86
2018-10-09T03:37:01.235Z,97.86
2018-10-09T03:38:01.226Z,97.86
2018-10-09T03:39:01.218Z,97.96
2018-10-09T03:40:01.206Z,97.86
2018-10-09T03:41:01.191Z,97.96
2018-10-09T03:42:01.180Z,97.96
2018-10-09T03:43:01.168Z,97.96
2018-10-09T03:44:01.157Z,97.76
2018-10-09T03:45:01.147Z,97.86
2018-10-09T03:46:01.136Z,97.76
2018-10-09T03:47:01.124Z,97.76
2018-10-09T03:48:01.116Z,97.65
2018-10-09T03:49:01.102Z,97.44
2018-10-09T03:50:01.092Z,97.55
2018-10-09T03:51:01.084Z,97.34
2018-10-09T03:52:01.072Z,97.24
2018-10-09T03:53:01.059Z,97.03
2018-10-09T03:54:01.047Z,96.93
2018-10-09T03:55:01.038Z,97.24
2018-10-09T03:56:01.025Z,97.34
2018-10-09T03:57:01.016Z,97.34
2018-10-09T03:58:01.003Z,97.24
2018-10-09T03:59:00.994Z,97.24
2018-10-09T04:00:00.982Z,97.14
2018-10-09T04:01:00.971Z,97.24
2018-10-09T04:02:00.958Z,97.44
2018-10-09T04:03:00.950Z,97.34
2018-10-09T04:04:00.938Z,97.24
2018-10-09T04:05:00.928Z,97.24
2018-10-09T04:06:00.916Z,97.24
2018-10-09T04:07:00.907Z,97.44
2018-10-09T04:08:00.895Z,97.24
2018-10-09T04:09:00.923Z,97.24
2018-10-09T04:10:00.871Z,97.24
2018-10-09T04:11:00.862Z,97.24
2018-10-09T04:12:00.851Z,97.14
2018-10-09T04:13:00.838Z,96.93
2018-10-09T04:14:00.828Z,96.93
2018-10-09T04:15:00.817Z,96.97
2018-10-09T04:16:00.806Z,97.29
2018-10-09T04:17:00.796Z,97.24
2018-10-09T04:18:00.784Z,97.03
2018-10-09T04:19:00.776Z,96.97
2018-10-09T04:20:00.762Z,97.08
2018-10-09T04:21:00.750Z,97.18
2018-10-09T04:22:00.740Z,97.18
2018-10-09T04:23:00.729Z,97.08
2018-10-09T04:24:00.718Z,97.29
2018-10-09T04:25:00.707Z,97.34
2018-10-09T04:26:00.695Z,97.24
2018-10-09T04:27:00.687Z,97.14
2018-10-09T04:28:00.680Z,97.24
2018-10-09T04:29:00.664Z,97.14
2018-10-09T04:30:00.654Z,97.03
2018-10-09T04:31:00.643Z,97.24
2018-10-09T04:32:00.630Z,97.14
2018-10-09T04:33:00.621Z,97.29
2018-10-09T04:34:00.608Z,97.39
2018-10-09T04:35:00.597Z,97.49
2018-10-09T04:36:00.587Z,97.55
2018-10-09T04:37:00.576Z,97.65
2018-10-09T04:38:00.564Z,97.55
2018-10-09T04:39:00.556Z,97.44
2018-10-09T04:40:00.543Z,97.44
2018-10-09T04:41:00.531Z,97.65
2018-10-09T04:42:00.521Z,97.65
2018-10-09T04:43:00.509Z,97.65
2018-10-09T04:44:00.500Z,97.55
2018-10-09T04:45:00.489Z,97.44
2018-10-09T04:46:00.477Z,97.55
2018-10-09T04:47:00.466Z,97.44
2018-10-09T04:48:00.459Z,97.55
2018-10-09T04:49:00.444Z,97.55
2018-10-09T04:50:00.433Z,97.55
2018-10-09T04:51:00.423Z,97.55
2018-10-09T04:52:00.412Z,97.44
2018-10-09T04:53:00.451Z,97.44
2018-10-09T04:54:00.388Z,97.44
2018-10-09T04:55:00.378Z,97.44
2018-10-09T04:56:00.370Z,97.44
2018-10-09T04:57:00.358Z,97.24
2018-10-09T04:58:00.346Z,97.24
2018-10-09T04:59:00.337Z,97.24
2018-10-09T05:00:00.323Z,97.34
2018-10-09T05:01:00.313Z,97.55
2018-10-09T05:02:00.303Z,97.55
2018-10-09T05:03:00.291Z,97.76
2018-10-09T05:04:00.279Z,97.76
2018-10-09T05:05:00.269Z,97.44
2018-10-09T05:06:00.258Z,97.24
2018-10-09T05:07:00.246Z,97.03
2018-10-09T05:08:00.239Z,97.14
2018-10-09T05:09:00.224Z,97.24
2018-10-09T05:10:00.214Z,97.24
2018-10-09T05:11:00.204Z,97.44
2018-10-09T05:12:00.192Z,97.65
2018-10-09T05:13:00.184Z,97.65
2018-10-09T05:14:00.171Z,97.55
2018-10-09T05:15:00.160Z,97.65
2018-10-09T05:16:00.148Z,97.55
2018-10-09T05:17:00.141Z,97.55
2018-10-09T05:18:00.126Z,97.34
2018-10-09T05:19:00.116Z,97.24
2018-10-09T05:20:00.106Z,97.44
2018-10-09T05:21:00.093Z,97.44
2018-10-09T05:22:00.083Z,97.44
2018-10-09T05:23:00.072Z,97.44
2018-10-09T05:24:00.062Z,97.34
2018-10-09T05:25:00.050Z,97.34
2018-10-09T05:26:00.048Z,97.14
2018-10-09T05:27:00.029Z,96.83
2018-10-09T05:28:00.017Z,97.03
2018-10-09T05:29:00.007Z,97.24
2018-10-09T05:29:59.994Z,97.24
2018-10-09T05:31:00.057Z,97.14
2018-10-09T05:31:59.974Z,97.24
2018-10-09T05:32:59.962Z,97.24
2018-10-09T05:33:59.952Z,97.24
2018-10-09T05:34:59.942Z,97.24
2018-10-09T05:35:59.930Z,97.34
2018-10-09T05:36:59.917Z,97.24
2018-10-09T05:37:59.907Z,97.03
2018-10-09T05:38:59.896Z,97.03
2018-10-09T05:39:59.886Z,97.03
2018-10-09T05:40:59.874Z,97.03
2018-10-09T05:41:59.865Z,97.24
2018-10-09T05:42:59.853Z,97.34
2018-10-09T05:43:59.842Z,97.03
2018-10-09T05:44:59.834Z,96.93
2018-10-09T05:45:59.820Z,96.72
2018-10-09T05:46:59.809Z,96.62
2018-10-09T05:47:59.799Z,96.62
2018-10-09T05:48:59.787Z,96.41
2018-10-09T05:49:59.776Z,96.52
2018-10-09T05:50:59.766Z,96.52
2018-10-09T05:51:59.753Z,96.56
2018-10-09T05:52:59.743Z,96.66
2018-10-09T05:53:59.733Z,96.62
2018-10-09T05:54:59.722Z,96.52
2018-10-09T05:55:59.710Z,96.31
2018-10-09T05:56:59.702Z,96.31
2018-10-09T05:57:59.764Z,96.20
2018-10-09T05:58:59.676Z,96.00
2018-10-09T05:59:59.671Z,96.00
2018-10-09T06:00:59.656Z,96.10
2018-10-09T06:01:59.645Z,96.10
2018-10-09T06:02:59.634Z,96.00
2018-10-09T06:03:59.623Z,95.69
2018-10-09T06:04:59.611Z,95.59
2018-10-09T06:05:59.671Z,95.59
2018-10-09T06:06:59.591Z,95.38
2018-10-09T06:07:59.580Z,95.28
2018-10-09T06:08:59.568Z,95.28
2018-10-09T06:09:59.556Z,95.28
2018-10-09T06:10:59.546Z,95.28
2018-10-09T06:11:59.537Z,95.17
2018-10-09T06:12:59.533Z,95.38
2018-10-09T06:13:59.513Z,95.34
2018-10-09T06:14:59.502Z,94.92
2018-10-09T06:15:59.537Z,94.82
2018-10-09T06:16:59.484Z,94.51
2018-10-09T06:17:59.467Z,94.20
2018-10-09T06:18:59.458Z,94.10
2018-10-09T06:19:59.447Z,94.20
2018-10-09T06:20:59.435Z,94.20
2018-10-09T06:21:59.462Z,94.41
2018-10-09T06:22:59.414Z,94.41
2018-10-09T06:23:59.407Z,94.20
2018-10-09T06:24:59.394Z,94.26
2018-10-09T06:25:59.382Z,93.95
2018-10-09T06:26:59.374Z,93.95
2018-10-09T06:27:59.416Z,93.85
2018-10-09T06:28:59.354Z,93.85
2018-10-09T06:29:59.338Z,93.95
2018-10-09T06:30:59.327Z,93.85
2018-10-09T06:31:59.315Z,93.75
2018-10-09T06:32:59.306Z,93.64
2018-10-09T06:33:59.303Z,93.43
2018-10-09T06:34:59.282Z,93.23
2018-10-09T06:35:59.272Z,93.02
2018-10-09T06:36:59.260Z,93.34
2018-10-09T06:37:59.250Z,93.09
2018-10-09T06:38:59.238Z,92.98
2018-10-09T06:39:59.229Z,92.77
2018-10-09T06:40:59.219Z,92.22
2018-10-09T06:41:59.217Z,91.80
2018-10-09T06:42:59.223Z,91.35
2018-10-09T06:43:59.213Z,91.04
2018-10-09T06:44:59.173Z,90.53
2018-10-09T06:45:59.163Z,90.22
2018-10-09T06:46:59.149Z,90.38
2018-10-09T06:47:59.150Z,90.07
2018-10-09T06:48:59.128Z,89.56
2018-10-09T06:49:59.117Z,88.80
2018-10-09T06:50:59.107Z,88.28
2018-10-09T06:51:59.096Z,88.49
2018-10-09T06:52:59.084Z,87.97
2018-10-09T06:53:59.296Z,88.28
2018-10-09T06:54:59.184Z,88.59
2018-10-09T06:55:59.054Z,89.00
2018-10-09T06:56:59.041Z,89.21
2018-10-09T06:57:59.032Z,89.56
2018-10-09T06:58:59.018Z,90.07
2018-10-09T06:59:59.008Z,90.42
2018-10-09T07:00:58.997Z,90.73
2018-10-09T07:01:58.987Z,90.94
2018-10-09T07:02:58.979Z,91.14
2018-10-09T07:03:58.963Z,91.51
2018-10-09T07:04:58.952Z,91.10
2018-10-09T07:05:58.942Z,91.21
2018-10-09T07:06:58.932Z,90.59
2018-10-09T07:07:58.922Z,90.89
2018-10-09T07:08:58.911Z,91.10
2018-10-09T07:09:58.898Z,91.21
2018-10-09T07:10:58.898Z,91.00
2018-10-09T07:11:58.877Z,91.10
2018-10-09T07:12:58.865Z,91.10
2018-10-09T07:13:58.856Z,90.96
2018-10-09T07:14:58.843Z,90.75
2018-10-09T07:15:58.831Z,90.44
2018-10-09T07:16:58.837Z,90.34
2018-10-09T07:17:58.811Z,90.34
2018-10-09T07:18:58.813Z,90.75
2018-10-09T07:19:58.792Z,90.96
2018-10-09T07:20:58.778Z,91.21
2018-10-09T07:21:58.768Z,91.41
2018-10-09T07:22:58.758Z,91.27
2018-10-09T07:23:58.746Z,91.06
2018-10-09T07:24:58.736Z,91.27
2018-10-09T07:25:58.724Z,91.06
2018-10-09T07:26:58.715Z,90.85
2018-10-09T07:27:58.759Z,90.91
2018-10-09T07:28:58.696Z,90.91
2018-10-09T07:29:58.681Z,90.61
2018-10-09T07:30:58.669Z,90.50
2018-10-09T07:31:58.757Z,90.71
2018-10-09T07:32:58.648Z,90.15
2018-10-09T07:33:58.638Z,89.95
2018-10-09T07:34:58.625Z,90.05
2018-10-09T07:35:58.614Z,89.33
2018-10-09T07:36:58.601Z,90.25
2018-10-09T07:37:58.593Z,90.05
2018-10-09T07:38:58.581Z,89.84
2018-10-09T07:39:58.569Z,89.59
2018-10-09T07:40:58.559Z,89.59
2018-10-09T07:41:58.549Z,89.29
2018-10-09T07:42:58.535Z,89.39
2018-10-09T07:43:58.556Z,89.08
2018-10-09T07:44:58.517Z,89.35
2018-10-09T07:45:58.508Z,89.45
2018-10-09T07:46:58.493Z,89.25
2018-10-09T07:47:58.483Z,88.94
2018-10-09T07:48:58.476Z,88.69
2018-10-09T07:49:58.462Z,88.59
2018-10-09T07:50:58.450Z,88.07
2018-10-09T07:51:58.438Z,88.28
2018-10-09T07:52:58.491Z,87.93
2018-10-09T07:53:58.418Z,87.83
2018-10-09T07:54:58.409Z,87.93
2018-10-09T07:55:58.396Z,87.28
2018-10-09T07:56:58.384Z,86.97
2018-10-09T07:57:58.373Z,87.28
2018-10-09T07:58:58.364Z,86.97
2018-10-09T07:59:58.352Z,87.38
2018-10-09T08:00:58.341Z,87.28
2018-10-09T08:01:58.329Z,87.07
2018-10-09T08:02:58.318Z,87.44
2018-10-09T08:03:58.306Z,87.24
2018-10-09T08:04:58.297Z,86.93
2018-10-09T08:05:58.286Z,87.44
2018-10-09T08:06:58.273Z,87.13
2018-10-09T08:07:58.263Z,87.65
2018-10-09T08:08:58.253Z,87.44
2018-10-09T08:09:58.243Z,86.82
2018-10-09T08:10:58.434Z,87.40
2018-10-09T08:11:58.220Z,86.79
2018-10-09T08:12:58.210Z,86.79
2018-10-09T08:13:58.198Z,86.89
2018-10-09T08:14:58.187Z,86.48
2018-10-09T08:15:58.178Z,86.74
2018-10-09T08:16:58.170Z,86.13
2018-10-09T08:17:58.155Z,86.23
2018-10-09T08:18:58.145Z,86.13
2018-10-09T08:19:58.134Z,86.34
2018-10-09T08:20:58.121Z,86.19
2018-10-09T08:21:58.112Z,85.47
2018-10-09T08:22:58.206Z,85.79
2018-10-09T08:23:58.101Z,86.26
2018-10-09T08:24:58.077Z,85.13
2018-10-09T08:25:58.069Z,84.79
2018-10-09T08:26:58.065Z,84.47
2018-10-09T08:27:58.097Z,84.88
2018-10-09T08:28:58.034Z,83.72
2018-10-09T08:29:58.022Z,84.03
2018-10-09T08:30:58.012Z,84.44
2018-10-09T08:31:58.003Z,83.92
2018-10-09T08:32:57.990Z,83.11
2018-10-09T08:33:57.981Z,84.13
2018-10-09T08:34:57.970Z,84.30
2018-10-09T08:35:57.958Z,84.60
2018-10-09T08:36:57.951Z,82.76
2018-10-09T08:37:57.937Z,83.75
2018-10-09T08:38:57.925Z,83.64
2018-10-09T08:39:57.915Z,83.50
2018-10-09T08:40:57.904Z,83.09
2018-10-09T08:41:57.894Z,82.34
2018-10-09T08:42:57.882Z,81.93
2018-10-09T08:43:57.872Z,81.73
2018-10-09T08:44:57.861Z,82.75
2018-10-09T08:45:57.849Z,82.00
2018-10-09T08:46:57.844Z,82.61
2018-10-09T08:47:57.827Z,81.96
2018-10-09T08:48:57.816Z,80.73
2018-10-09T08:49:57.808Z,81.82
2018-10-09T08:50:57.794Z,80.29
2018-10-09T08:51:57.889Z,81.00
2018-10-09T08:52:57.774Z,79.58
2018-10-09T08:53:57.764Z,80.46
2018-10-09T08:54:57.752Z,80.05
2018-10-09T08:55:57.740Z,80.96
2018-10-09T08:56:57.730Z,80.11
2018-10-09T08:57:57.728Z,80.62
2018-10-09T08:58:57.739Z,80.11
2018-10-09T08:59:57.711Z,79.71
2018-10-09T09:00:57.685Z,79.80
2018-10-09T09:01:57.674Z,80.01
2018-10-09T09:02:57.671Z,80.11
2018-10-09T09:03:57.653Z,79.91
2018-10-09T09:04:57.642Z,79.71
2018-10-09T09:05:57.632Z,80.59
2018-10-09T09:06:57.621Z,79.87
2018-10-09T09:07:57.609Z,79.98
2018-10-09T09:08:57.596Z,80.38
2018-10-09T09:09:57.589Z,80.48
2018-10-09T09:10:57.577Z,80.18
2018-10-09T09:11:57.565Z,80.79
2018-10-09T09:12:57.554Z,80.28
2018-10-09T09:13:57.564Z,80.68
2018-10-09T09:14:57.538Z,80.99
2018-10-09T09:15:57.521Z,80.79
2018-10-09T09:16:57.513Z,81.09
2018-10-09T09:17:57.506Z,80.79
2018-10-09T09:18:57.486Z,81.03
2018-10-09T09:19:57.485Z,81.34
2018-10-09T09:21:57.465Z,81.54
2018-10-09T09:22:57.444Z,81.34
2018-10-09T09:23:57.443Z,81.64
2018-10-09T09:24:57.433Z,81.74
2018-10-09T09:25:57.411Z,81.64
2018-10-09T09:26:57.428Z,81.50
2018-10-09T09:27:57.390Z,81.60
2018-10-09T09:28:57.380Z,81.20
2018-10-09T09:29:57.368Z,81.40
2018-10-09T09:30:57.360Z,81.50
2018-10-09T09:31:57.345Z,81.29
2018-10-09T09:32:57.376Z,80.28
2018-10-09T09:33:57.335Z,80.79
2018-10-09T09:34:57.316Z,80.79
2018-10-09T09:35:57.305Z,80.34
2018-10-09T09:36:57.291Z,80.65
2018-10-09T09:37:57.280Z,80.14
2018-10-09T09:38:57.268Z,80.41
2018-10-09T09:39:57.255Z,80.31
2018-10-09T09:40:57.246Z,79.69
2018-10-09T09:41:57.235Z,79.90
2018-10-09T09:42:57.231Z,78.78
2018-10-09T09:43:57.212Z,79.05
2018-10-09T09:44:57.207Z,78.74
2018-10-09T09:45:57.381Z,78.85
2018-10-09T09:46:57.182Z,78.64
2018-10-09T09:47:57.175Z,79.35
2018-10-09T09:48:57.157Z,79.25
2018-10-09T09:49:57.148Z,79.05
2018-10-09T09:50:57.136Z,79.46
2018-10-09T09:51:57.175Z,79.66
2018-10-09T09:52:57.113Z,79.35
2018-10-09T09:53:57.103Z,79.15
2018-10-09T09:54:57.091Z,78.91
2018-10-09T09:55:57.082Z,78.81
2018-10-09T09:56:57.074Z,78.71
2018-10-09T09:57:57.262Z,78.47
2018-10-09T09:58:57.279Z,78.57
2018-10-09T09:59:57.036Z,78.87
2018-10-09T10:00:57.026Z,79.07
2018-10-09T10:01:57.015Z,79.28
2018-10-09T10:02:57.003Z,79.28
2018-10-09T10:03:56.993Z,79.07
2018-10-09T10:04:56.986Z,78.97
2018-10-09T10:05:56.970Z,78.77
2018-10-09T10:06:56.961Z,78.74
2018-10-09T10:07:56.953Z,78.33
2018-10-09T10:08:56.937Z,78.02
2018-10-09T10:09:56.929Z,77.78
2018-10-09T10:10:56.916Z,77.38
2018-10-09T10:11:56.907Z,77.58
2018-10-09T10:12:56.896Z,77.34
2018-10-09T10:13:56.883Z,77.55
2018-10-09T10:14:56.872Z,77.64
2018-10-09T10:15:56.862Z,77.61
2018-10-09T10:16:56.852Z,77.20
2018-10-09T10:17:56.840Z,77.20
2018-10-09T10:18:56.829Z,76.46
2018-10-09T10:19:56.821Z,76.46
2018-10-09T10:20:56.810Z,76.12
2018-10-09T10:21:56.799Z,75.81
2018-10-09T10:22:56.790Z,75.41
2018-10-09T10:23:56.777Z,75.41
2018-10-09T10:24:56.764Z,75.17
2018-10-09T10:25:56.758Z,75.28
2018-10-09T10:26:56.745Z,75.37
2018-10-09T10:27:56.732Z,75.07
2018-10-09T10:28:56.755Z,75.04
2018-10-09T10:29:56.711Z,74.93
2018-10-09T10:30:56.699Z,74.60
2018-10-09T10:31:56.688Z,74.49
2018-10-09T10:32:56.707Z,73.75
2018-10-09T10:33:56.665Z,73.15
2018-10-09T10:34:56.657Z,73.45
2018-10-09T10:35:56.644Z,73.45
2018-10-09T10:36:56.633Z,73.41
2018-10-09T10:37:56.624Z,72.61
2018-10-09T10:38:56.617Z,73.32
2018-10-09T10:39:56.601Z,73.28
2018-10-09T10:40:56.589Z,73.08
2018-10-09T10:41:56.602Z,72.88
2018-10-09T10:42:56.568Z,72.94
2018-10-09T10:43:56.559Z,72.44
2018-10-09T10:44:56.545Z,72.13
2018-10-09T10:45:56.535Z,72.00
2018-10-09T10:46:56.523Z,72.00
2018-10-09T10:47:56.513Z,71.39
2018-10-09T10:48:56.558Z,71.46
2018-10-09T10:49:56.495Z,71.06
2018-10-09T10:50:56.483Z,70.22
2018-10-09T10:51:56.472Z,70.42
2018-10-09T10:52:56.460Z,70.22
2018-10-09T10:53:56.448Z,69.68
2018-10-09T10:54:56.498Z,69.78
2018-10-09T10:55:56.434Z,69.95
2018-10-09T10:56:56.414Z,69.15
2018-10-09T10:57:56.407Z,69.35
2018-10-09T10:58:56.401Z,69.25
2018-10-09T10:59:56.380Z,68.81
2018-10-09T11:00:56.370Z,68.91
2018-10-09T11:01:56.416Z,68.81
2018-10-09T11:02:56.348Z,68.81
2018-10-09T11:03:56.338Z,68.98
2018-10-09T11:04:56.329Z,68.38
2018-10-09T11:05:56.317Z,68.68
2018-10-09T11:06:56.305Z,68.34
2018-10-09T11:07:56.325Z,68.24
2018-10-09T11:08:56.285Z,67.34
2018-10-09T11:09:56.274Z,67.74
2018-10-09T11:10:56.262Z,68.14
2018-10-09T11:11:56.252Z,68.21
2018-10-09T11:12:56.240Z,68.21
2018-10-09T11:13:56.230Z,67.91
2018-10-09T11:14:56.217Z,67.38
2018-10-09T11:15:56.206Z,66.57
2018-10-09T11:16:56.205Z,66.27
2018-10-09T11:17:56.189Z,66.04
2018-10-09T11:18:56.176Z,66.24
2018-10-09T11:19:56.170Z,66.04
2018-10-09T11:20:56.155Z,66.34
2018-10-09T11:21:56.144Z,66.84
2018-10-09T11:22:56.130Z,66.74
2018-10-09T11:23:56.122Z,66.74
2018-10-09T11:24:56.112Z,66.67
2018-10-09T11:25:56.100Z,67.07
2018-10-09T11:26:56.091Z,67.14
2018-10-09T11:27:56.078Z,67.14
2018-10-09T11:28:56.066Z,66.84
2018-10-09T11:29:56.055Z,66.51
2018-10-09T11:30:56.045Z,67.31
2018-10-09T11:31:56.034Z,65.91
2018-10-09T11:32:56.021Z,66.31
2018-10-09T11:33:56.011Z,66.08
2018-10-09T11:34:55.998Z,66.21
2018-10-09T11:35:55.987Z,66.71
2018-10-09T11:36:55.976Z,66.91
2018-10-09T11:37:55.967Z,66.91
2018-10-09T11:38:55.956Z,66.84
2018-10-09T11:39:55.944Z,67.65
2018-10-09T11:40:55.940Z,67.44
2018-10-09T11:41:55.923Z,67.51
2018-10-09T11:42:56.022Z,67.61
2018-10-09T11:43:55.917Z,67.61
2018-10-09T11:44:55.888Z,67.41
2018-10-09T11:45:55.889Z,67.41
2018-10-09T11:46:55.870Z,67.31
2018-10-09T11:47:55.855Z,67.01
2018-10-09T11:48:55.846Z,67.41
2018-10-09T11:49:55.834Z,67.11
2018-10-09T11:50:55.825Z,67.01
2018-10-09T11:51:55.814Z,67.18
2018-10-09T11:52:55.803Z,67.28
2018-10-09T11:53:55.853Z,66.98
2018-10-09T11:54:55.781Z,67.18
2018-10-09T11:55:55.775Z,67.15
2018-10-09T11:56:55.763Z,66.65
2018-10-09T11:57:55.746Z,66.14
2018-10-09T11:58:55.798Z,66.28
2018-10-09T11:59:55.726Z,66.38
2018-10-09T12:00:55.717Z,66.58
2018-10-09T12:01:55.704Z,66.91
2018-10-09T12:02:55.765Z,67.11
2018-10-09T12:03:55.681Z,67.28
2018-10-09T12:04:55.669Z,66.98
2018-10-09T12:05:55.843Z,67.38
2018-10-09T12:06:55.659Z,66.18
2018-10-09T12:07:55.639Z,67.08
2018-10-09T12:08:55.629Z,66.78
2018-10-09T12:09:55.617Z,66.58
2018-10-09T12:10:55.610Z,67.18
2018-10-09T12:11:55.595Z,67.08
2018-10-09T12:12:55.583Z,67.28
2018-10-09T12:13:55.572Z,65.77
2018-10-09T12:14:55.560Z,64.37
2018-10-09T12:15:55.587Z,67.08
2018-10-09T12:16:55.546Z,66.21
2018-10-09T12:17:55.541Z,66.41
2018-10-09T12:18:55.529Z,65.20
2018-10-09T12:19:55.518Z,66.11
2018-10-09T12:20:55.513Z,65.84
2018-10-09T12:21:55.510Z,65.94
2018-10-09T12:22:55.490Z,65.64
2018-10-09T12:23:55.478Z,68.45
2018-10-09T12:24:55.462Z,67.57
2018-10-09T12:25:55.455Z,67.04
2018-10-09T12:26:55.461Z,67.85
2018-10-09T12:27:55.421Z,67.44
2018-10-09T12:28:55.410Z,66.44
2018-10-09T12:29:55.398Z,68.58
2018-10-09T12:30:55.387Z,67.98
2018-10-09T12:31:55.377Z,67.38
2018-10-09T12:32:55.418Z,67.38
2018-10-09T12:33:55.355Z,68.04
2018-10-09T12:34:55.346Z,68.65
2018-10-09T12:35:55.332Z,68.75
2018-10-09T12:36:55.322Z,66.54
2018-10-09T12:37:55.311Z,67.85
2018-10-09T12:38:55.302Z,68.24
2018-10-09T12:39:55.290Z,68.42
2018-10-09T12:40:55.280Z,67.14
2018-10-09T12:41:55.269Z,67.11
2018-10-09T12:42:55.260Z,68.01
2018-10-09T12:43:55.282Z,67.61
2018-10-09T12:44:55.239Z,67.04
2018-10-09T12:45:55.230Z,67.61
2018-10-09T12:46:55.215Z,67.41
2018-10-09T12:47:55.207Z,67.61
2018-10-09T12:48:55.193Z,67.41
2018-10-09T12:49:55.187Z,67.61
2018-10-09T12:50:55.170Z,65.61
2018-10-09T12:51:55.160Z,65.10
2018-10-09T12:52:55.194Z,66.91